Time;durP1;ratioP1;P1;durP2;ratioP2;P2;SDS_P1;SDS_P2;PMS_P1;PMS_P2;Temp;Humidity;BMP_temperature;BMP_pressure;BME280_temperature;BME280_humidity;BME280_pressure;Samples;Min_cycle;Max_cycle;Signal;HPM_P1;HPM_P2
2022/12/28 00:01:39;;;;;;;5.23;1.70;;;-0.60;99.90;;;;;;5050684;28;20451;-77
2022/12/28 00:04:06;;;;;;;1.60;1.50;;;-0.60;99.90;;;;;;5054796;28;20829;-77
2022/12/28 00:06:34;;;;;;;2.38;1.80;;;-0.60;99.90;;;;;;5054339;28;20451;-77
2022/12/28 00:09:02;;;;;;;2.20;1.47;;;-0.60;99.90;;;;;;5046232;28;20206;-77
2022/12/28 00:11:29;;;;;;;1.57;1.07;;;-0.60;99.90;;;;;;5048114;28;20480;-77
2022/12/28 00:13:57;;;;;;;2.23;1.27;;;-0.70;99.90;;;;;;5048687;28;20536;-76
2022/12/28 00:16:27;;;;;;;3.95;1.73;;;-0.70;99.90;;;;;;5052831;28;21001;-77
2022/12/28 00:18:54;;;;;;;2.95;1.55;;;-0.80;99.90;;;;;;5048924;28;20214;-77
2022/12/28 00:21:21;;;;;;;2.65;1.27;;;-0.80;99.90;;;;;;5049140;28;20210;-77
2022/12/28 00:23:51;;;;;;;3.27;1.40;;;-0.80;99.90;;;;;;5049782;28;20242;-77
2022/12/28 00:26:19;;;;;;;3.00;1.90;;;-0.90;99.90;;;;;;5048736;28;20458;-77
2022/12/28 00:28:46;;;;;;;1.37;1.27;;;-1.00;99.90;;;;;;5045475;28;20467;-77
2022/12/28 00:31:13;;;;;;;3.43;1.50;;;-1.00;99.90;;;;;;5047140;28;20584;-77
2022/12/28 00:33:40;;;;;;;3.05;1.45;;;-1.00;99.90;;;;;;5049882;28;20478;-76
2022/12/28 00:36:10;;;;;;;1.67;1.20;;;-1.00;99.90;;;;;;5054852;28;20556;-77
2022/12/28 00:38:37;;;;;;;2.22;1.73;;;-1.00;99.90;;;;;;5047397;28;20517;-77
2022/12/28 00:41:07;;;;;;;1.27;1.15;;;-1.10;99.90;;;;;;5045388;28;20201;-76
2022/12/28 00:43:34;;;;;;;4.63;1.77;;;-1.10;99.90;;;;;;5049612;28;20212;-76
2022/12/28 00:46:01;;;;;;;2.17;1.77;;;-1.00;99.90;;;;;;5052522;28;21086;-76
2022/12/28 00:48:28;;;;;;;2.93;1.43;;;-0.90;99.90;;;;;;5052468;28;20210;-76
2022/12/28 00:51:01;;;;;;;2.20;1.30;;;-1.00;99.90;;;;;;5044625;28;20480;-76
2022/12/28 00:53:28;;;;;;;1.65;1.20;;;-1.00;99.90;;;;;;5048375;28;20210;-76
2022/12/28 00:55:55;;;;;;;6.17;1.63;;;-0.90;99.90;;;;;;5055486;28;20258;-76
2022/12/28 00:58:24;;;;;;;4.80;1.55;;;-1.00;99.90;;;;;;5046714;28;20452;-76
2022/12/28 01:00:51;;;;;;;4.13;1.65;;;-0.90;99.90;;;;;;5046098;28;20201;-79
2022/12/28 01:03:17;;;;;;;2.63;0.85;;;-0.90;99.90;;;;;;5055030;28;20202;-79
2022/12/28 01:05:44;;;;;;;1.50;1.00;;;-0.90;99.90;;;;;;5048979;28;20211;-76
2022/12/28 01:08:11;;;;;;;3.00;1.45;;;-1.00;99.90;;;;;;5049032;28;20833;-75
2022/12/28 01:10:39;;;;;;;2.92;1.58;;;-0.80;99.90;;;;;;5059949;28;20261;-78
2022/12/28 01:13:06;;;;;;;5.07;1.80;;;-0.70;99.90;;;;;;5049761;28;20198;-78
2022/12/28 01:15:34;;;;;;;2.05;1.17;;;-0.70;99.90;;;;;;5048719;28;20455;-76
2022/12/28 01:18:01;;;;;;;1.80;1.40;;;-0.70;99.90;;;;;;5049325;28;20625;-76
2022/12/28 01:20:28;;;;;;;4.07;1.55;;;-0.70;99.90;;;;;;5048159;28;20663;-76
2022/12/28 01:22:56;;;;;;;2.75;1.20;;;-0.80;99.90;;;;;;5045793;28;20678;-76
2022/12/28 01:25:23;;;;;;;1.08;0.80;;;-0.90;99.90;;;;;;5049260;28;20232;-76
2022/12/28 01:27:50;;;;;;;3.67;1.13;;;-1.00;99.90;;;;;;5051622;28;20209;-76
2022/12/28 01:30:17;;;;;;;0.88;0.80;;;-1.10;99.90;;;;;;5056805;28;20237;-76
2022/12/28 01:32:46;;;;;;;1.50;1.17;;;-1.10;99.90;;;;;;5050219;28;20203;-76
2022/12/28 01:35:13;;;;;;;1.73;1.10;;;-1.20;99.90;;;;;;5048531;28;20209;-76
2022/12/28 01:37:40;;;;;;;1.88;1.20;;;-1.20;99.90;;;;;;5047913;28;20993;-76
2022/12/28 01:40:09;;;;;;;2.60;1.70;;;-1.20;99.90;;;;;;5048719;28;20212;-76
2022/12/28 01:42:38;;;;;;;2.78;1.00;;;-1.20;99.90;;;;;;5052336;28;20441;-76
2022/12/28 01:45:16;;;;;;;1.38;0.90;;;-1.40;99.90;;;;;;5048915;28;20270;-76
2022/12/28 01:47:45;;;;;;;1.10;0.90;;;-1.40;99.90;;;;;;5053128;28;20210;-79
2022/12/28 01:50:16;;;;;;;1.42;1.15;;;-1.50;99.90;;;;;;5047666;28;20658;-76
2022/12/28 01:52:48;;;;;;;2.38;1.00;;;-1.50;99.90;;;;;;5050177;28;20230;-76
2022/12/28 01:55:18;;;;;;;2.03;1.10;;;-1.50;99.90;;;;;;5045733;28;20274;-76
2022/12/28 01:57:48;;;;;;;1.80;0.90;;;-1.50;99.90;;;;;;5047688;28;20916;-76
2022/12/28 02:00:17;;;;;;;4.60;1.47;;;-1.60;99.90;;;;;;5047349;28;20711;-76
2022/12/28 02:02:49;;;;;;;4.05;1.63;;;-1.70;99.90;;;;;;5045478;28;20452;-76
2022/12/28 02:05:18;;;;;;;1.87;1.00;;;-1.60;99.90;;;;;;5045964;28;20580;-77
2022/12/28 02:07:51;;;;;;;2.03;1.25;;;-1.60;99.90;;;;;;5045976;28;20495;-76
2022/12/28 02:10:20;;;;;;;1.93;1.40;;;-1.60;99.90;;;;;;5045805;28;20209;-76
2022/12/28 02:12:47;;;;;;;2.07;1.10;;;-1.60;99.90;;;;;;5047481;28;21076;-76
2022/12/28 02:15:14;;;;;;;2.90;1.10;;;-1.70;99.90;;;;;;5051721;28;20452;-76
2022/12/28 02:17:41;;;;;;;3.50;1.20;;;-1.70;99.90;;;;;;5048729;28;20263;-76
2022/12/28 02:20:09;;;;;;;1.83;1.37;;;-1.70;99.90;;;;;;5043982;28;20213;-76
2022/12/28 02:23:18;;;;;;;1.88;0.90;;;-1.80;99.90;;;;;;5045426;28;20453;-76
2022/12/28 02:26:15;;;;;;;1.88;1.38;;;-1.70;99.90;;;;;;5045902;28;20209;-76
2022/12/28 02:29:15;;;;;;;2.05;1.20;;;-1.70;99.90;;;;;;5058326;28;20258;-76
2022/12/28 02:31:46;;;;;;;0.93;0.73;;;-1.70;99.90;;;;;;5047932;28;20308;-76
2022/12/28 02:34:20;;;;;;;1.93;1.23;;;-1.70;99.90;;;;;;5047789;28;20646;-76
2022/12/28 02:36:54;;;;;;;1.20;1.10;;;-1.80;99.90;;;;;;5044412;28;20855;-77
2022/12/28 02:39:24;;;;;;;1.83;1.30;;;-1.80;99.90;;;;;;5046792;28;20512;-76
2022/12/28 02:41:53;;;;;;;1.70;0.70;;;-1.80;99.90;;;;;;5047256;28;20509;-76
2022/12/28 02:52:56;;;;;;;1.27;1.17;;;-1.70;99.90;;;;;;5047394;28;20289;-76
2022/12/28 02:59:03;;;;;;;1.43;1.30;;;-1.50;99.90;;;;;;5020405;28;20205;-76
2022/12/28 03:02:06;;;;;;;2.60;1.00;;;-1.60;99.90;;;;;;5047089;28;20460;-76
2022/12/28 03:04:43;;;;;;;1.43;0.90;;;-1.60;99.90;;;;;;5046980;28;20464;-76
2022/12/28 03:10:11;;;;;;;2.35;1.20;;;-1.50;99.90;;;;;;5043845;28;20748;-76
2022/12/28 03:12:43;;;;;;;2.13;1.13;;;-1.60;99.90;;;;;;5050420;28;20232;-76
2022/12/28 03:15:14;;;;;;;2.00;1.10;;;-1.60;99.90;;;;;;5043996;28;20690;-76
2022/12/28 03:31:42;;;;;;;2.10;0.70;;;-1.70;99.90;;;;;;5046139;28;20829;-76
2022/12/28 03:34:10;;;;;;;1.90;1.00;;;-1.70;99.90;;;;;;5042988;28;20249;-76
2022/12/28 03:36:47;;;;;;;0.90;0.70;;;-1.70;99.90;;;;;;5052742;28;20566;-76
2022/12/28 03:39:21;;;;;;;1.40;1.00;;;-1.80;99.90;;;;;;5044108;28;20863;-76
2022/12/28 03:44:43;;;;;;;1.67;1.30;;;-1.90;99.90;;;;;;5051976;28;20612;-76
2022/12/28 03:47:12;;;;;;;2.05;0.70;;;-1.90;99.90;;;;;;5046828;28;20214;-76
2022/12/28 03:49:41;;;;;;;1.83;0.80;;;-1.90;99.90;;;;;;5045339;28;20291;-76
2022/12/28 03:52:10;;;;;;;1.35;1.10;;;-1.90;99.90;;;;;;5044188;28;21568;-77
2022/12/28 03:54:37;;;;;;;1.20;0.93;;;-1.90;99.90;;;;;;5048637;28;20271;-78
2022/12/28 03:57:04;;;;;;;0.80;0.63;;;-1.90;99.90;;;;;;5048602;28;20459;-78
2022/12/28 03:59:31;;;;;;;1.03;0.80;;;-1.90;99.90;;;;;;5047524;28;20521;-78
2022/12/28 04:01:58;;;;;;;0.80;0.68;;;-1.90;99.90;;;;;;5047840;28;20466;-78
2022/12/28 04:04:25;;;;;;;1.35;1.00;;;-1.80;99.90;;;;;;5050500;28;20270;-78
2022/12/28 04:06:53;;;;;;;0.93;0.80;;;-1.80;99.90;;;;;;5049383;28;20266;-78
2022/12/28 04:09:21;;;;;;;2.47;1.07;;;-1.80;99.90;;;;;;5047492;28;20463;-78
2022/12/28 04:11:48;;;;;;;1.17;0.70;;;-1.70;99.90;;;;;;5052278;28;20926;-78
2022/12/28 04:14:15;;;;;;;2.17;1.10;;;-1.90;99.90;;;;;;5048615;28;20475;-78
2022/12/28 04:16:42;;;;;;;1.52;1.27;;;-1.90;99.90;;;;;;5050896;28;20653;-76
2022/12/28 04:19:09;;;;;;;1.33;0.80;;;-1.90;99.90;;;;;;5053957;28;20266;-78
2022/12/28 04:21:36;;;;;;;1.33;1.05;;;-1.90;99.90;;;;;;5049727;28;20891;-78
2022/12/28 04:24:05;;;;;;;3.73;0.80;;;-1.90;99.90;;;;;;5052131;28;20202;-78
2022/12/28 04:26:31;;;;;;;2.80;1.20;;;-1.80;99.90;;;;;;5049747;28;20464;-78
2022/12/28 04:29:00;;;;;;;3.30;1.33;;;-1.70;99.90;;;;;;5047561;28;20268;-76
2022/12/28 04:31:28;;;;;;;0.70;0.70;;;-1.80;99.90;;;;;;5047463;28;20243;-76
2022/12/28 04:33:57;;;;;;;2.00;1.00;;;-1.90;99.90;;;;;;5048169;28;20354;-76
2022/12/28 04:36:24;;;;;;;1.95;0.75;;;-1.90;99.90;;;;;;5048136;28;20204;-76
2022/12/28 04:38:51;;;;;;;1.08;0.88;;;-1.90;99.90;;;;;;5046280;28;20210;-76
2022/12/28 04:41:19;;;;;;;0.70;0.70;;;-1.90;99.90;;;;;;5047996;28;20205;-76
2022/12/28 04:43:46;;;;;;;0.90;0.63;;;-1.90;99.90;;;;;;5046941;28;20205;-76
2022/12/28 04:46:15;;;;;;;1.98;0.80;;;-1.90;99.90;;;;;;5047904;28;20269;-76
2022/12/28 04:48:42;;;;;;;1.27;1.07;;;-1.90;99.90;;;;;;5051118;28;20590;-76
2022/12/28 04:51:15;;;;;;;1.95;0.95;;;-1.90;99.90;;;;;;5054254;28;20522;-76
2022/12/28 04:53:42;;;;;;;1.35;0.98;;;-1.90;99.90;;;;;;5051895;28;20209;-76
2022/12/28 04:56:11;;;;;;;1.20;1.00;;;-1.80;99.90;;;;;;5045816;28;20259;-76
2022/12/28 04:58:40;;;;;;;0.80;0.80;;;-1.80;99.90;;;;;;5048672;28;20456;-76
2022/12/28 05:01:09;;;;;;;2.08;0.90;;;-1.70;99.90;;;;;;5049140;28;20206;-76
2022/12/28 05:03:37;;;;;;;1.25;0.90;;;-1.70;99.90;;;;;;5046339;28;20255;-76
2022/12/28 05:06:06;;;;;;;1.40;1.10;;;-1.70;99.90;;;;;;5048165;28;20512;-76
2022/12/28 05:08:35;;;;;;;1.65;0.70;;;-1.80;99.90;;;;;;5048952;28;20209;-76
2022/12/28 05:11:03;;;;;;;2.20;1.17;;;-1.80;99.90;;;;;;5053020;28;20550;-76
2022/12/28 05:13:30;;;;;;;1.77;1.15;;;-1.90;99.90;;;;;;5051718;28;20523;-76
2022/12/28 05:16:02;;;;;;;11.00;6.93;;;-2.00;99.90;;;;;;5050850;28;20259;-76
2022/12/28 05:18:29;;;;;;;22.75;12.38;;;-2.00;99.90;;;;;;5049711;28;20461;-76
2022/12/28 05:21:00;;;;;;;21.15;13.18;;;-2.00;99.90;;;;;;5048999;28;20314;-76
2022/12/28 05:23:29;;;;;;;14.68;6.72;;;-2.00;99.90;;;;;;5046144;28;20197;-76
2022/12/28 05:25:56;;;;;;;9.27;3.80;;;-2.00;99.90;;;;;;5050103;28;20504;-76
2022/12/28 05:28:25;;;;;;;5.45;4.07;;;-2.00;99.90;;;;;;5050232;28;20209;-76
2022/12/28 05:30:52;;;;;;;8.77;6.00;;;-2.00;99.90;;;;;;5050064;28;20396;-76
2022/12/28 05:33:21;;;;;;;7.78;3.75;;;-2.00;99.90;;;;;;5048276;28;20692;-76
2022/12/28 05:35:48;;;;;;;6.05;4.53;;;-2.00;99.90;;;;;;5050145;28;20501;-76
2022/12/28 05:38:14;;;;;;;5.72;4.80;;;-2.00;99.90;;;;;;5048436;28;20376;-77
2022/12/28 05:40:41;;;;;;;3.75;2.65;;;-2.00;99.90;;;;;;5050066;28;20268;-76
2022/12/28 05:43:08;;;;;;;5.85;3.38;;;-2.00;99.90;;;;;;5044473;28;20394;-76
2022/12/28 05:45:36;;;;;;;1.67;1.20;;;-2.00;99.90;;;;;;5048525;28;20213;-77
2022/12/28 05:48:03;;;;;;;2.90;1.85;;;-2.00;99.90;;;;;;5044247;28;20212;-77
2022/12/28 05:50:31;;;;;;;1.58;1.30;;;-2.00;99.90;;;;;;5049346;28;20210;-76
2022/12/28 05:52:58;;;;;;;2.42;1.75;;;-1.90;99.90;;;;;;5043976;28;20282;-77
2022/12/28 05:55:25;;;;;;;3.60;2.03;;;-1.80;99.90;;;;;;5047754;28;20318;-76
2022/12/28 05:57:55;;;;;;;1.63;1.52;;;-1.80;99.90;;;;;;5053731;28;20696;-76
2022/12/28 06:00:22;;;;;;;3.35;1.70;;;-1.90;99.90;;;;;;5058303;28;20209;-78
2022/12/28 06:02:49;;;;;;;10.60;7.60;;;-1.90;99.90;;;;;;5059081;28;20661;-78
2022/12/28 06:05:16;;;;;;;38.53;19.50;;;-1.90;99.90;;;;;;5054357;28;20210;-76
2022/12/28 06:07:44;;;;;;;26.67;14.23;;;-1.90;99.90;;;;;;5047965;28;20205;-76
2022/12/28 06:10:11;;;;;;;17.83;10.68;;;-1.90;99.90;;;;;;5055753;28;20236;-76
2022/12/28 06:12:38;;;;;;;29.50;16.88;;;-1.80;99.90;;;;;;5061097;28;20705;-78
2022/12/28 06:15:06;;;;;;;22.80;11.65;;;-1.80;99.90;;;;;;5062287;28;20247;-79
2022/12/28 06:17:33;;;;;;;15.52;9.63;;;-1.60;99.90;;;;;;5061775;28;20273;-76
2022/12/28 06:20:00;;;;;;;14.95;7.32;;;-1.50;99.90;;;;;;5049279;28;20274;-76
2022/12/28 06:22:27;;;;;;;6.30;3.88;;;-1.50;99.90;;;;;;5058400;28;20660;-76
2022/12/28 06:24:56;;;;;;;9.60;1.75;;;-1.50;99.90;;;;;;5063297;28;20211;-76
2022/12/28 06:27:23;;;;;;;2.72;2.10;;;-1.50;99.90;;;;;;5063032;28;20255;-76
2022/12/28 06:29:49;;;;;;;2.13;1.30;;;-1.60;99.90;;;;;;5048872;28;20287;-78
2022/12/28 06:32:16;;;;;;;1.52;1.35;;;-1.60;99.90;;;;;;5058388;28;20622;-78
2022/12/28 06:34:43;;;;;;;4.45;1.77;;;-1.50;99.90;;;;;;5059254;28;20207;-78
2022/12/28 06:37:10;;;;;;;3.97;2.55;;;-1.50;99.90;;;;;;5049123;28;20206;-79
2022/12/28 06:39:37;;;;;;;1.23;1.00;;;-1.50;99.90;;;;;;5045654;28;20204;-76
2022/12/28 06:42:05;;;;;;;1.30;1.00;;;-1.50;99.90;;;;;;5046159;28;20537;-76
2022/12/28 06:44:32;;;;;;;1.13;0.90;;;-1.50;99.90;;;;;;5044849;28;20490;-76
2022/12/28 06:46:59;;;;;;;1.20;0.98;;;-1.40;99.90;;;;;;5047307;28;20286;-78
2022/12/28 06:49:26;;;;;;;1.57;1.37;;;-1.50;99.90;;;;;;5049181;28;20263;-78
2022/12/28 06:51:53;;;;;;;1.37;1.00;;;-1.40;99.90;;;;;;5046247;28;20475;-83
2022/12/28 06:54:20;;;;;;;5.10;1.10;;;-1.50;99.90;;;;;;5043852;28;20456;-77
2022/12/28 06:56:47;;;;;;;8.17;5.80;;;-1.50;99.90;;;;;;5055907;28;20549;-79
2022/12/28 06:59:15;;;;;;;8.17;2.40;;;-1.50;99.90;;;;;;5043441;28;20464;-77
2022/12/28 07:01:44;;;;;;;3.40;1.33;;;-1.20;99.90;;;;;;5059036;28;20783;-77
2022/12/28 07:04:12;;;;;;;3.20;2.33;;;-1.20;99.90;;;;;;5054130;28;20919;-77
2022/12/28 07:06:41;;;;;;;3.47;1.77;;;-1.10;99.90;;;;;;5054236;28;20552;-77
2022/12/28 07:09:10;;;;;;;2.27;2.03;;;-1.10;99.90;;;;;;5044425;28;20463;-77
2022/12/28 07:11:37;;;;;;;2.25;1.20;;;-1.00;99.90;;;;;;5057589;28;20526;-77
2022/12/28 07:14:05;;;;;;;2.10;1.67;;;-1.10;99.90;;;;;;5050221;28;20344;-77
2022/12/28 07:16:33;;;;;;;3.40;2.50;;;-1.10;99.90;;;;;;5055148;28;20954;-77
2022/12/28 07:19:00;;;;;;;1.67;1.42;;;-1.00;99.90;;;;;;5052567;28;20471;-77
2022/12/28 07:21:29;;;;;;;3.00;1.50;;;-0.90;99.90;;;;;;5052871;28;20266;-78
2022/12/28 07:23:58;;;;;;;4.73;1.70;;;-0.90;99.90;;;;;;5051093;28;20450;-78
2022/12/28 07:26:27;;;;;;;5.53;1.63;;;-0.90;99.90;;;;;;5053581;28;20657;-78
2022/12/28 07:28:56;;;;;;;2.22;1.42;;;-0.90;99.90;;;;;;5049182;28;20534;-78
2022/12/28 07:31:24;;;;;;;2.15;1.77;;;-0.80;99.90;;;;;;5053551;28;20282;-77
2022/12/28 07:33:56;;;;;;;1.77;1.67;;;-0.80;99.90;;;;;;5048607;28;20255;-78
2022/12/28 07:36:24;;;;;;;2.38;1.70;;;-0.90;99.90;;;;;;5053033;28;20235;-77
2022/12/28 07:38:52;;;;;;;2.70;1.85;;;-0.90;99.90;;;;;;5051493;28;20212;-78
2022/12/28 07:41:20;;;;;;;3.70;2.17;;;-1.00;99.90;;;;;;5045455;28;20212;-77
2022/12/28 07:43:47;;;;;;;2.57;2.37;;;-1.00;99.90;;;;;;5051161;28;20238;-76
2022/12/28 07:46:17;;;;;;;6.60;5.97;;;-1.10;99.90;;;;;;5052056;28;21064;-76
2022/12/28 07:48:44;;;;;;;19.15;12.88;;;-1.00;99.90;;;;;;5053377;28;20270;-76
2022/12/28 07:51:19;;;;;;;32.42;20.42;;;-1.10;99.90;;;;;;5050945;28;20256;-76
2022/12/28 07:53:49;;;;;;;57.08;41.65;;;-1.10;99.90;;;;;;5056164;28;20295;-76
2022/12/28 07:56:17;;;;;;;63.45;37.55;;;-1.10;99.90;;;;;;5050245;28;20245;-77
2022/12/28 07:58:48;;;;;;;41.33;25.90;;;-1.10;99.90;;;;;;5062006;28;20645;-75
2022/12/28 08:01:17;;;;;;;26.70;20.70;;;-1.10;99.90;;;;;;5066688;28;20495;-75
2022/12/28 08:03:44;;;;;;;4.82;4.35;;;-1.10;99.90;;;;;;5061961;28;20551;-75
2022/12/28 08:06:14;;;;;;;16.95;13.85;;;-1.00;99.90;;;;;;5063729;28;20204;-76
2022/12/28 08:08:43;;;;;;;8.98;6.45;;;-1.00;99.90;;;;;;5053805;28;20257;-76
2022/12/28 08:11:13;;;;;;;34.00;27.10;;;-0.90;99.90;;;;;;5061912;28;20212;-75
2022/12/28 08:13:42;;;;;;;29.42;21.42;;;-0.70;99.90;;;;;;5055201;28;20341;-75
2022/12/28 08:16:11;;;;;;;4.18;3.05;;;-0.60;99.90;;;;;;5051299;28;20208;-76
2022/12/28 08:18:39;;;;;;;2.22;1.83;;;-0.30;99.90;;;;;;5058683;28;20208;-76
2022/12/28 08:21:08;;;;;;;11.68;10.55;;;0.00;99.90;;;;;;5048249;28;20218;-76
2022/12/28 08:23:36;;;;;;;9.73;6.00;;;0.20;99.90;;;;;;5051376;28;20205;-76
2022/12/28 08:26:07;;;;;;;10.17;9.27;;;0.40;99.90;;;;;;5057313;28;20544;-76
2022/12/28 08:28:35;;;;;;;4.70;4.30;;;0.60;99.90;;;;;;5059032;28;20452;-76
2022/12/28 08:31:06;;;;;;;2.10;1.60;;;0.80;99.90;;;;;;5053467;28;20322;-76
2022/12/28 08:33:33;;;;;;;1.97;1.87;;;0.90;99.90;;;;;;5050553;28;21030;-76
2022/12/28 08:36:00;;;;;;;2.97;2.67;;;1.00;99.90;;;;;;5056165;28;20471;-76
2022/12/28 08:38:27;;;;;;;2.57;1.60;;;1.10;99.90;;;;;;5056986;28;20810;-76
2022/12/28 08:41:00;;;;;;;1.93;0.80;;;1.10;99.90;;;;;;5054508;28;20510;-76
2022/12/28 08:43:28;;;;;;;2.03;1.67;;;1.20;99.90;;;;;;5053007;28;20444;-76
2022/12/28 08:45:59;;;;;;;0.93;0.93;;;1.10;99.90;;;;;;5052622;28;20527;-76
2022/12/28 08:48:26;;;;;;;1.10;0.80;;;1.00;99.90;;;;;;5049787;28;20467;-76
2022/12/28 08:50:54;;;;;;;1.90;1.17;;;1.00;99.90;;;;;;5052406;28;20460;-76
2022/12/28 08:53:23;;;;;;;0.80;0.60;;;1.10;99.90;;;;;;5045637;28;20997;-76
2022/12/28 08:55:50;;;;;;;1.00;0.90;;;1.20;99.90;;;;;;5049544;28;20525;-76
2022/12/28 08:58:18;;;;;;;1.23;0.80;;;1.10;99.90;;;;;;5044632;28;20461;-77
2022/12/28 09:00:45;;;;;;;1.37;1.10;;;1.00;99.90;;;;;;5060783;28;20851;-77
2022/12/28 09:03:12;;;;;;;1.13;0.70;;;1.20;99.90;;;;;;5065560;28;20758;-77
2022/12/28 09:05:40;;;;;;;1.37;1.13;;;1.30;99.90;;;;;;5055967;28;20633;-76
2022/12/28 09:08:07;;;;;;;2.30;1.60;;;1.40;99.90;;;;;;5057277;28;20637;-77
2022/12/28 09:10:34;;;;;;;1.70;1.57;;;1.60;99.90;;;;;;5048980;28;20561;-76
2022/12/28 09:13:00;;;;;;;2.27;1.93;;;1.60;99.90;;;;;;5062063;28;20585;-77
2022/12/28 09:15:29;;;;;;;4.17;1.30;;;1.70;99.90;;;;;;5056248;28;21013;-77
2022/12/28 09:17:56;;;;;;;2.40;1.47;;;1.70;99.90;;;;;;5057176;28;20951;-77
2022/12/28 09:20:23;;;;;;;2.60;1.97;;;1.90;99.90;;;;;;5051039;28;20528;-76
2022/12/28 09:22:49;;;;;;;1.93;1.80;;;1.90;99.90;;;;;;5046408;28;20519;-76
2022/12/28 09:25:16;;;;;;;7.53;2.90;;;1.90;99.90;;;;;;5061331;28;20885;-77
2022/12/28 09:27:47;;;;;;;4.27;2.23;;;1.60;99.90;;;;;;5058666;28;20577;-81
2022/12/28 09:30:14;;;;;;;6.47;2.97;;;1.50;99.90;;;;;;5058930;28;20492;-79
2022/12/28 09:32:42;;;;;;;3.03;2.47;;;1.30;99.90;;;;;;5054837;28;20467;-78
2022/12/28 09:35:09;;;;;;;1.50;1.40;;;1.50;99.90;;;;;;5046892;28;20488;-78
2022/12/28 09:37:36;;;;;;;2.60;2.03;;;1.50;99.90;;;;;;5048370;28;20472;-78
2022/12/28 09:40:03;;;;;;;3.77;3.03;;;1.70;99.90;;;;;;5047976;28;20479;-78
2022/12/28 09:42:42;;;;;;;3.80;1.30;;;1.80;99.90;;;;;;5061460;28;20518;-78
2022/12/28 09:45:12;;;;;;;2.60;2.40;;;1.70;99.90;;;;;;5047656;28;20535;-78
2022/12/28 09:47:46;;;;;;;2.93;2.50;;;1.70;99.90;;;;;;5047434;28;20909;-79
2022/12/28 09:50:29;;;;;;;2.77;2.00;;;1.60;99.90;;;;;;5051107;28;20582;-78
2022/12/28 09:53:11;;;;;;;4.73;3.80;;;1.60;99.90;;;;;;5054143;28;21036;-79
2022/12/28 09:55:40;;;;;;;10.13;4.60;;;1.80;99.90;;;;;;5048517;28;20595;-78
2022/12/28 09:58:14;;;;;;;7.97;3.10;;;1.80;99.90;;;;;;5054490;28;20492;-78
2022/12/28 10:00:45;;;;;;;2.93;2.10;;;2.00;99.90;;;;;;5060136;28;20525;-77
2022/12/28 10:03:18;;;;;;;1.60;1.50;;;2.00;99.90;;;;;;5046523;28;20897;-77
2022/12/28 10:05:45;;;;;;;2.27;1.93;;;2.20;99.90;;;;;;5055845;28;20840;-77
2022/12/28 10:08:16;;;;;;;1.50;1.40;;;2.40;99.90;;;;;;5063342;28;20491;-78
2022/12/28 10:10:44;;;;;;;2.20;1.83;;;2.70;99.90;;;;;;5059205;28;20468;-77
2022/12/28 10:13:16;;;;;;;1.63;1.50;;;2.70;99.90;;;;;;5063777;28;20548;-77
2022/12/28 10:15:43;;;;;;;1.43;1.33;;;2.70;99.90;;;;;;5055833;28;20475;-78
2022/12/28 10:18:14;;;;;;;2.20;2.00;;;2.80;99.90;;;;;;5052762;28;20488;-78
2022/12/28 10:20:43;;;;;;;2.03;1.70;;;2.70;99.90;;;;;;5048668;28;20440;-77
2022/12/28 10:23:13;;;;;;;2.93;1.70;;;3.00;99.90;;;;;;5057161;28;20754;-78
2022/12/28 10:25:41;;;;;;;1.60;1.27;;;2.90;99.90;;;;;;5054939;28;20470;-77
2022/12/28 10:28:11;;;;;;;3.60;2.23;;;2.90;99.90;;;;;;5059246;28;20569;-78
2022/12/28 10:30:45;;;;;;;2.20;1.50;;;3.00;99.90;;;;;;5045540;28;20552;-78
2022/12/28 10:33:19;;;;;;;4.47;2.63;;;3.00;99.90;;;;;;5056997;28;20440;-77
2022/12/28 10:35:51;;;;;;;3.33;2.90;;;3.00;99.90;;;;;;5049471;28;20921;-77
2022/12/28 10:38:23;;;;;;;5.20;2.50;;;3.20;99.90;;;;;;5051691;28;20552;-76
2022/12/28 10:40:59;;;;;;;2.47;2.27;;;3.10;99.90;;;;;;5051009;28;20474;-76
2022/12/28 10:43:29;;;;;;;2.75;1.73;;;3.30;99.90;;;;;;5049456;28;20806;-77
2022/12/28 10:45:58;;;;;;;1.60;0.90;;;3.40;99.90;;;;;;5052340;28;20206;-77
2022/12/28 10:48:30;;;;;;;1.33;1.20;;;3.20;99.90;;;;;;5045266;28;20471;-76
2022/12/28 10:51:00;;;;;;;1.53;1.17;;;3.30;99.90;;;;;;5045811;28;20495;-77
2022/12/28 10:53:30;;;;;;;1.00;0.90;;;3.20;99.90;;;;;;5044252;28;20547;-76
2022/12/28 10:56:21;;;;;;;2.33;1.00;;;3.20;99.90;;;;;;5047331;28;20845;-75
2022/12/28 10:58:50;;;;;;;1.97;1.03;;;3.10;99.90;;;;;;5043647;28;20496;-76
2022/12/28 11:01:19;;;;;;;1.17;0.80;;;2.90;99.90;;;;;;5049017;28;22700;-76
2022/12/28 11:04:01;;;;;;;2.00;1.30;;;2.90;99.90;;;;;;5052429;28;20504;-78
2022/12/28 11:06:29;;;;;;;2.40;1.60;;;3.00;99.90;;;;;;5043125;28;20464;-77
2022/12/28 11:09:17;;;;;;;1.53;1.30;;;3.00;99.90;;;;;;5049341;28;20495;-77
2022/12/28 11:11:45;;;;;;;1.90;1.30;;;3.20;99.90;;;;;;5043704;28;20510;-77
2022/12/28 11:14:20;;;;;;;2.03;1.53;;;3.30;99.90;;;;;;5050117;28;20507;-76
2022/12/28 11:16:47;;;;;;;1.73;1.40;;;3.30;99.90;;;;;;5047165;28;21015;-76
2022/12/28 11:19:16;;;;;;;2.13;1.20;;;3.30;99.90;;;;;;5047759;28;21143;-76
2022/12/28 11:21:44;;;;;;;3.70;2.13;;;3.20;99.90;;;;;;5046203;28;20523;-76
2022/12/28 11:24:14;;;;;;;3.27;1.87;;;3.00;99.90;;;;;;5045175;28;20449;-76
2022/12/28 11:26:44;;;;;;;1.93;1.50;;;3.00;99.90;;;;;;5045529;28;20531;-76
2022/12/28 11:29:13;;;;;;;4.53;2.60;;;3.10;99.90;;;;;;5042329;28;20451;-76
2022/12/28 11:31:45;;;;;;;1.87;1.37;;;3.10;99.90;;;;;;5045574;28;20468;-76
2022/12/28 11:34:19;;;;;;;3.63;2.10;;;3.10;99.90;;;;;;5048488;28;20487;-78
2022/12/28 11:36:47;;;;;;;2.40;1.77;;;3.00;99.90;;;;;;5048574;28;20993;-75
2022/12/28 11:39:43;;;;;;;2.40;2.20;;;2.90;99.90;;;;;;5051198;28;20459;-76
2022/12/28 11:42:10;;;;;;;3.13;2.20;;;3.00;99.90;;;;;;5048418;28;20474;-76
2022/12/28 11:44:52;;;;;;;2.73;2.50;;;3.00;99.90;;;;;;5049136;28;20451;-76
2022/12/28 11:47:32;;;;;;;8.97;6.53;;;3.00;99.90;;;;;;5046155;28;20991;-76
2022/12/28 11:50:38;;;;;;;2.73;2.40;;;3.10;99.90;;;;;;5045413;28;20496;-79
2022/12/28 11:53:21;;;;;;;3.93;2.63;;;3.00;99.90;;;;;;5045859;28;20456;-77
2022/12/28 11:56:07;;;;;;;4.70;2.73;;;3.00;99.90;;;;;;5047475;28;20488;-77
2022/12/28 11:59:00;;;;;;;4.93;2.60;;;3.10;99.90;;;;;;5053266;28;20785;-78
2022/12/28 12:01:58;;;;;;;1.73;1.63;;;3.20;99.90;;;;;;5043903;28;20517;-77
2022/12/28 12:04:31;;;;;;;2.13;2.00;;;3.20;99.90;;;;;;5041096;28;21005;-78
2022/12/28 12:07:26;;;;;;;4.20;2.40;;;3.30;99.90;;;;;;5047352;28;20465;-77
2022/12/28 12:10:41;;;;;;;2.87;2.67;;;3.30;99.90;;;;;;5048650;28;20577;-78
2022/12/28 12:13:47;;;;;;;2.93;2.57;;;3.50;99.90;;;;;;5051679;28;20522;-77
2022/12/28 12:16:44;;;;;;;2.23;2.03;;;3.90;99.90;;;;;;5055222;28;20460;-77
2022/12/28 12:19:22;;;;;;;2.63;2.43;;;3.90;99.90;;;;;;5055056;28;20499;-75
2022/12/28 12:21:59;;;;;;;3.30;2.23;;;3.80;99.90;;;;;;5055651;28;20499;-77
2022/12/28 12:24:32;;;;;;;5.07;3.00;;;3.80;99.90;;;;;;5054561;28;20460;-77
2022/12/28 12:27:04;;;;;;;4.87;2.93;;;3.70;99.90;;;;;;5052313;28;20486;-77
2022/12/28 12:29:37;;;;;;;4.87;4.10;;;3.80;99.90;;;;;;5054820;28;20928;-77
2022/12/28 12:32:10;;;;;;;5.23;4.43;;;3.60;99.90;;;;;;5054440;28;20963;-77
2022/12/28 12:34:42;;;;;;;6.70;4.17;;;3.70;99.90;;;;;;5057443;28;20550;-77
2022/12/28 12:37:31;;;;;;;4.30;3.47;;;3.80;99.90;;;;;;5055603;28;20766;-79
2022/12/28 12:40:21;;;;;;;2.93;2.70;;;3.80;99.90;;;;;;5050613;28;20518;-79
2022/12/28 12:43:07;;;;;;;10.53;3.43;;;3.70;99.90;;;;;;5058560;28;20807;-79
2022/12/28 12:45:47;;;;;;;3.10;2.80;;;3.70;99.90;;;;;;5058456;28;20440;-77
2022/12/28 12:48:34;;;;;;;2.70;2.50;;;3.70;99.90;;;;;;5050000;28;20506;-77
2022/12/28 12:51:14;;;;;;;5.87;2.90;;;3.80;99.90;;;;;;5061907;28;20531;-78
2022/12/28 12:53:56;;;;;;;7.37;4.30;;;3.80;99.90;;;;;;5050543;28;20952;-77
2022/12/28 12:56:34;;;;;;;6.00;3.47;;;3.70;99.90;;;;;;5061074;28;20444;-78
2022/12/28 12:59:19;;;;;;;3.33;2.90;;;3.70;99.90;;;;;;5061299;28;20931;-78
2022/12/28 13:01:53;;;;;;;3.17;2.63;;;3.70;99.90;;;;;;5059687;28;20529;-78
2022/12/28 13:04:24;;;;;;;3.23;3.03;;;3.80;99.90;;;;;;5058561;28;20443;-78
2022/12/28 13:06:54;;;;;;;4.43;3.73;;;3.90;99.90;;;;;;5061492;28;20460;-77
2022/12/28 13:09:23;;;;;;;5.57;2.90;;;3.90;99.90;;;;;;5054118;28;20500;-78
2022/12/28 13:11:51;;;;;;;3.83;2.73;;;3.90;99.90;;;;;;5066113;28;20467;-78
2022/12/28 13:14:20;;;;;;;3.83;3.27;;;3.90;99.90;;;;;;5056134;28;20570;-77
2022/12/28 13:16:52;;;;;;;4.23;3.80;;;3.80;99.90;;;;;;5061120;28;20452;-78
2022/12/28 13:19:22;;;;;;;3.70;3.37;;;3.80;99.90;;;;;;5060016;28;20505;-78
2022/12/28 13:21:50;;;;;;;4.50;3.80;;;3.70;99.90;;;;;;5060759;28;20468;-78
2022/12/28 13:24:20;;;;;;;5.70;5.20;;;3.80;99.90;;;;;;5059779;28;20509;-77
2022/12/28 13:26:47;;;;;;;5.57;4.70;;;3.70;99.90;;;;;;5059783;28;20601;-77
2022/12/28 13:29:19;;;;;;;4.90;4.50;;;3.70;99.90;;;;;;5056736;28;20486;-77
2022/12/28 13:31:49;;;;;;;6.60;4.10;;;3.70;99.90;;;;;;5064379;28;20510;-77
2022/12/28 13:34:18;;;;;;;4.40;3.22;;;3.60;99.90;;;;;;5057317;28;20463;-77
2022/12/28 13:36:49;;;;;;;5.00;4.50;;;3.40;99.90;;;;;;5059166;28;20259;-77
2022/12/28 13:39:19;;;;;;;5.03;3.70;;;3.20;99.90;;;;;;5057049;28;20461;-77
2022/12/28 13:41:52;;;;;;;8.60;5.53;;;3.20;99.90;;;;;;5058398;28;20443;-77